KTYS/TYS METAR and TAF weather

Enter ICAO airport designator
Station Type Date Time Source
KTYS METAR 2018/12/15 01:53 UTC NOAA

KTYS 150153Z 02009KT 10SM SCT034 OVC048 11/09 A2992 RMK AO2 SLP129 T01110089


Station Type Date Time Source
KTYS Decoded METAR 2018/12/15 01:53 UTC NOAA

MCGHEE TYSON AIRPORT, TN, United States (KTYS) 35-49N 083-59W 302M
Dec 14, 2018 - 08:53 PM EST / 2018.12.15 0153 UTC
Wind: from the NNE (020 degrees) at 10 MPH (9 KT):0
Visibility: 10 mile(s):0
Sky conditions: overcast
Temperature: 52.0 F (11.1 C)
Dew Point: 48.0 F (8.9 C)
Relative Humidity: 86%
Pressure (altimeter): 29.92 in. Hg (1013 hPa)
ob: KTYS 150153Z 02009KT 10SM SCT034 OVC048 11/09 A2992 RMK AO2 SLP129 T01110089
cycle: 2

Station Type Date Time Source
KTYS TAF 2018/12/14 22:33 UTC NOAA

TAF
AMD KTYS 142229Z 1422/1518 04006KT P6SM BKN040 OVC060
FM150200 03004KT 4SM BR SCT020 OVC040
FM150700 08004KT 5SM BR VCSH OVC025
FM151300 24006KT 5SM BR OVC025


Example: see airport list